Love Boat — OT3861 — position and weather

sailwx.info

Track history (hours):
 
Tides and Currents Weather Stations Pressure Air Temp Water Temp Dewpoint Dewpoint Depression Visibility Wind Speed Wind Dir Waves Ship Positions

Love Boat

Last reported at 2017-Jan-17 21:33 UTC. Time now 2017-Jan-22 10:18 UTC.
Position N 50°41' E 007°11'.

Length 110 m; draft 2 m.

Type: Ship. MMSI: 205386190.

Date/timePositionNaut miles runAvg speedWind from/ knotsBaromVisibWave heightAir tempDewpointWater temp
2017-Jan-17 21:33N 50°41' E 007°11'4 4.1
2017-Jan-17 20:33N 50°44' E 007°07'5 4.3
2017-Jan-17 19:29N 50°48' E 007°02'4 3.4
2017-Jan-17 18:24N 50°51' E 006°60'3 3.8
2017-Jan-17 17:33N 50°53' E 007°03'4 3.6
2017-Jan-17 16:33N 50°56' E 006°58'16 3.1
2017-Jan-17 11:26N 51°10' E 006°48'3 3.7
2017-Jan-17 10:33N 51°12' E 006°44'3 2.6
2017-Jan-17 09:33N 51°14' E 006°46'20 3.3
2017-Jan-17 03:33N 51°34' E 006°41'4 3.6
2017-Jan-17 02:31N 51°35' E 006°36'4 4.4
2017-Jan-17 01:33N 51°40' E 006°34'5 4.6
2017-Jan-17 00:33N 51°42' E 006°28'4 4.3
2017-Jan-16 23:33N 51°45' E 006°24'5 5.2
2017-Jan-16 22:33N 51°49' E 006°18'6 5.5
2017-Jan-16 21:33N 51°51' E 006°09'6 6.0
2017-Jan-16 20:33N 51°53' E 006°00'4 4.4
2017-Jan-16 19:33N 51°52' E 005°53'3 2.7
2017-Jan-16 18:33N 51°52' E 005°49'6 5.8
2017-Jan-16 17:33N 51°54' E 005°40'6 5.9
2017-Jan-16 16:31N 51°53' E 005°30'8 4.3
2017-Jan-16 14:33N 51°58' E 005°19'7 6.7
2017-Jan-16 13:33N 52°01' E 005°09'8 8.0
2017-Jan-16 12:33N 52°08' E 005°03'8 7.6
2017-Jan-16 11:33N 52°15' E 005°01'8 7.8
2017-Jan-16 10:33N 52°23' E 004°57'8 7.8
2017-Jan-16 09:33N 52°26' E 004°45'1 0.7
2017-Jan-16 08:33N 52°25' E 004°44'0 0.0
2017-Jan-16 07:33N 52°25' E 004°44'0 0.4
2017-Jan-16 06:33N 52°26' E 004°45'0 0.0
2017-Jan-16 05:33N 52°26' E 004°45'0 0.0
2017-Jan-16 04:33N 52°26' E 004°45'0 0.0
2017-Jan-16 03:33N 52°26' E 004°45'0 0.0
2017-Jan-16 02:34N 52°26' E 004°45'0 0.0
2017-Jan-16 01:33N 52°26' E 004°45'0 0.0
2017-Jan-16 00:34N 52°26' E 004°45'0 0.0
2017-Jan-15 23:33N 52°26' E 004°45'0 0.0
2017-Jan-15 22:33N 52°26' E 004°45'0 0.0
2017-Jan-15 21:34N 52°26' E 004°45'0 0.0
2017-Jan-15 20:33N 52°26' E 004°45'0 0.0
2017-Jan-15 19:33N 52°26' E 004°45'0 0.0
2017-Jan-15 18:33N 52°26' E 004°45'0 0.0
2017-Jan-15 17:33N 52°26' E 004°45'0 0.0
2017-Jan-15 16:33N 52°26' E 004°45'1 0.8
2017-Jan-15 15:34N 52°26' E 004°46'7 6.7
2017-Jan-15 14:34N 52°23' E 004°56'1 1.0
2017-Jan-15 13:33N 52°23' E 004°57'0 0.3
2017-Jan-15 12:34N 52°22' E 004°57'5 4.5
2017-Jan-15 11:33N 52°18' E 005°01'8 7.3
2017-Jan-15 10:29N 52°11' E 004°60'6 6.9
2017-Jan-15 09:34N 52°05' E 005°05'10 7.3
2017-Jan-15 08:14N 51°59' E 005°17'10 0.7
2017-Jan-14 17:06N 51°53' E 005°30'5 9.4
2017-Jan-14 16:33N 51°54' E 005°38'9 9.2
2017-Jan-14 15:34N 51°51' E 005°52'7 7.1
2017-Jan-14 14:34N 51°52' E 006°04'9 9.3
2017-Jan-14 13:33N 51°49' E 006°18'8 7.8
2017-Jan-14 12:33N 51°43' E 006°26'8 7.6
2017-Jan-14 11:32N 51°38' E 006°35'26 0.8
2017-Jan-13 03:29N 51°12' E 006°42'0 0.0
2017-Jan-13 02:33N 51°12' E 006°42'0 0.0
2017-Jan-13 01:33N 51°12' E 006°42'0 0.0
2017-Jan-13 00:30N 51°12' E 006°42'0 0.0
2017-Jan-12 23:32N 51°12' E 006°42'0 0.0
2017-Jan-12 22:32N 51°12' E 006°42'0 0.0
2017-Jan-12 21:33N 51°12' E 006°42'0 0.0
2017-Jan-12 20:34N 51°12' E 006°42'0 0.0
2017-Jan-12 19:33N 51°12' E 006°42'0 0.0
2017-Jan-12 18:34N 51°12' E 006°42'0 0.0
2017-Jan-12 17:34N 51°12' E 006°42'19 3.8
2017-Jan-12 12:30N 50°56' E 006°58'5 5.3
2017-Jan-12 11:33N 50°51' E 007°01'6 6.1
2017-Jan-12 10:33N 50°46' E 007°05'  
Track history (hours):
 
Tides and Currents Weather Stations Pressure Air Temp Water Temp Dewpoint Dewpoint Depression Visibility Wind Speed Wind Dir Waves Ship Positions

Love Boat

Last reported at 2017-Jan-17 21:33 UTC. Time now 2017-Jan-22 10:18 UTC.
Position N 50°41' E 007°11'.

Length 110 m; draft 2 m.

Type: Ship. MMSI: 205386190.

Date/timePositionNaut miles runAvg speedWind from/ knotsBaromVisibWave heightAir tempDewpointWater temp
2017-Jan-17 21:33N 50°41' E 007°11'4 4.1
2017-Jan-17 20:33N 50°44' E 007°07'5 4.3
2017-Jan-17 19:29N 50°48' E 007°02'4 3.4
2017-Jan-17 18:24N 50°51' E 006°60'3 3.8
2017-Jan-17 17:33N 50°53' E 007°03'4 3.6
2017-Jan-17 16:33N 50°56' E 006°58'16 3.1
2017-Jan-17 11:26N 51°10' E 006°48'3 3.7
2017-Jan-17 10:33N 51°12' E 006°44'3 2.6
2017-Jan-17 09:33N 51°14' E 006°46'20 3.3
2017-Jan-17 03:33N 51°34' E 006°41'4 3.6
2017-Jan-17 02:31N 51°35' E 006°36'4 4.4
2017-Jan-17 01:33N 51°40' E 006°34'5 4.6
2017-Jan-17 00:33N 51°42' E 006°28'4 4.3
2017-Jan-16 23:33N 51°45' E 006°24'5 5.2
2017-Jan-16 22:33N 51°49' E 006°18'6 5.5
2017-Jan-16 21:33N 51°51' E 006°09'6 6.0
2017-Jan-16 20:33N 51°53' E 006°00'4 4.4
2017-Jan-16 19:33N 51°52' E 005°53'3 2.7
2017-Jan-16 18:33N 51°52' E 005°49'6 5.8
2017-Jan-16 17:33N 51°54' E 005°40'6 5.9
2017-Jan-16 16:31N 51°53' E 005°30'8 4.3
2017-Jan-16 14:33N 51°58' E 005°19'7 6.7
2017-Jan-16 13:33N 52°01' E 005°09'8 8.0
2017-Jan-16 12:33N 52°08' E 005°03'8 7.6
2017-Jan-16 11:33N 52°15' E 005°01'8 7.8
2017-Jan-16 10:33N 52°23' E 004°57'8 7.8
2017-Jan-16 09:33N 52°26' E 004°45'1 0.7
2017-Jan-16 08:33N 52°25' E 004°44'0 0.0
2017-Jan-16 07:33N 52°25' E 004°44'0 0.4
2017-Jan-16 06:33N 52°26' E 004°45'0 0.0
2017-Jan-16 05:33N 52°26' E 004°45'0 0.0
2017-Jan-16 04:33N 52°26' E 004°45'0 0.0
2017-Jan-16 03:33N 52°26' E 004°45'0 0.0
2017-Jan-16 02:34N 52°26' E 004°45'0 0.0
2017-Jan-16 01:33N 52°26' E 004°45'0 0.0
2017-Jan-16 00:34N 52°26' E 004°45'0 0.0
2017-Jan-15 23:33N 52°26' E 004°45'0 0.0
2017-Jan-15 22:33N 52°26' E 004°45'0 0.0
2017-Jan-15 21:34N 52°26' E 004°45'0 0.0
2017-Jan-15 20:33N 52°26' E 004°45'0 0.0
2017-Jan-15 19:33N 52°26' E 004°45'0 0.0
2017-Jan-15 18:33N 52°26' E 004°45'0 0.0
2017-Jan-15 17:33N 52°26' E 004°45'0 0.0
2017-Jan-15 16:33N 52°26' E 004°45'1 0.8
2017-Jan-15 15:34N 52°26' E 004°46'7 6.7
2017-Jan-15 14:34N 52°23' E 004°56'1 1.0
2017-Jan-15 13:33N 52°23' E 004°57'0 0.3
2017-Jan-15 12:34N 52°22' E 004°57'5 4.5
2017-Jan-15 11:33N 52°18' E 005°01'8 7.3
2017-Jan-15 10:29N 52°11' E 004°60'6 6.9
2017-Jan-15 09:34N 52°05' E 005°05'10 7.3
2017-Jan-15 08:14N 51°59' E 005°17'10 0.7
2017-Jan-14 17:06N 51°53' E 005°30'5 9.4
2017-Jan-14 16:33N 51°54' E 005°38'9 9.2
2017-Jan-14 15:34N 51°51' E 005°52'7 7.1
2017-Jan-14 14:34N 51°52' E 006°04'9 9.3
2017-Jan-14 13:33N 51°49' E 006°18'8 7.8
2017-Jan-14 12:33N 51°43' E 006°26'8 7.6
2017-Jan-14 11:32N 51°38' E 006°35'26 0.8
2017-Jan-13 03:29N 51°12' E 006°42'0 0.0
2017-Jan-13 02:33N 51°12' E 006°42'0 0.0
2017-Jan-13 01:33N 51°12' E 006°42'0 0.0
2017-Jan-13 00:30N 51°12' E 006°42'0 0.0
2017-Jan-12 23:32N 51°12' E 006°42'0 0.0
2017-Jan-12 22:32N 51°12' E 006°42'0 0.0
2017-Jan-12 21:33N 51°12' E 006°42'0 0.0
2017-Jan-12 20:34N 51°12' E 006°42'0 0.0
2017-Jan-12 19:33N 51°12' E 006°42'0 0.0
2017-Jan-12 18:34N 51°12' E 006°42'0 0.0
2017-Jan-12 17:34N 51°12' E 006°42'19 3.8
2017-Jan-12 12:30N 50°56' E 006°58'5 5.3
2017-Jan-12 11:33N 50°51' E 007°01'6 6.1
2017-Jan-12 10:33N 50°46' E 007°05'  

Dump ship's entire track history